createdAt,value
2018-04-22T00:00:58.623Z,1018.96
2018-04-22T00:01:58.598Z,1018.99
2018-04-22T00:02:58.711Z,1018.97
2018-04-22T00:03:58.619Z,1018.97
2018-04-22T00:04:58.597Z,1018.96
2018-04-22T00:05:58.566Z,1018.95
2018-04-22T00:06:58.670Z,1018.89
2018-04-22T00:07:58.618Z,1018.9
2018-04-22T00:08:58.692Z,1018.93
2018-04-22T00:09:58.537Z,1018.89
2018-04-22T00:10:58.646Z,1018.92
2018-04-22T00:11:58.714Z,1018.89
2018-04-22T00:12:58.550Z,1018.88
2018-04-22T00:13:58.635Z,1018.82
2018-04-22T00:14:58.573Z,1018.87
2018-04-22T00:15:58.832Z,1018.83
2018-04-22T00:16:58.610Z,1018.84
2018-04-22T00:17:58.588Z,1018.82
2018-04-22T00:18:58.799Z,1018.79
2018-04-22T00:19:58.533Z,1018.81
2018-04-22T00:20:58.644Z,1018.77
2018-04-22T00:21:58.749Z,1018.76
2018-04-22T00:22:58.813Z,1018.73
2018-04-22T00:23:58.562Z,1018.74
2018-04-22T00:24:58.715Z,1018.74
2018-04-22T00:25:58.683Z,1018.73
2018-04-22T00:26:58.800Z,1018.72
2018-04-22T00:27:58.583Z,1018.73
2018-04-22T00:28:58.536Z,1018.74
2018-04-22T00:29:58.700Z,1018.71
2018-04-22T00:30:58.771Z,1018.71
2018-04-22T00:31:58.719Z,1018.73
2018-04-22T00:32:58.613Z,1018.73
2018-04-22T00:33:58.638Z,1018.72
2018-04-22T00:34:58.625Z,1018.69
2018-04-22T00:35:58.739Z,1018.69
2018-04-22T00:36:58.827Z,1018.72
2018-04-22T00:37:58.524Z,1018.7
2018-04-22T00:38:58.540Z,1018.7
2018-04-22T00:39:58.700Z,1018.68
2018-04-22T00:40:58.707Z,1018.68
2018-04-22T00:41:58.722Z,1018.65
2018-04-22T00:42:58.706Z,1018.63
2018-04-22T00:43:58.546Z,1018.65
2018-04-22T00:44:58.597Z,1018.62
2018-04-22T00:45:58.632Z,1018.58
2018-04-22T00:46:58.533Z,1018.6
2018-04-22T00:47:58.647Z,1018.59
2018-04-22T00:48:58.790Z,1018.57
2018-04-22T00:49:58.726Z,1018.58
2018-04-22T00:50:58.664Z,1018.58
2018-04-22T00:51:58.703Z,1018.56
2018-04-22T00:52:58.686Z,1018.56
2018-04-22T00:53:58.525Z,1018.55
2018-04-22T00:54:58.551Z,1018.56
2018-04-22T00:55:58.624Z,1018.55
2018-04-22T00:56:58.803Z,1018.55
2018-04-22T00:57:58.784Z,1018.49
2018-04-22T00:58:58.716Z,1018.47
2018-04-22T00:59:58.513Z,1018.47
2018-04-22T01:00:58.657Z,1018.52
2018-04-22T01:01:58.675Z,1018.47
2018-04-22T01:02:58.637Z,1018.5
2018-04-22T01:03:58.756Z,1018.52
2018-04-22T01:04:58.631Z,1018.48
2018-04-22T01:05:58.465Z,1018.48
2018-04-22T01:06:58.702Z,1018.48
2018-04-22T01:07:58.554Z,1018.51
2018-04-22T01:08:58.624Z,1018.48
2018-04-22T01:09:58.694Z,1018.48
2018-04-22T01:10:58.713Z,1018.49
2018-04-22T01:11:58.716Z,1018.49
2018-04-22T01:12:58.705Z,1018.48
2018-04-22T01:13:58.628Z,1018.48
2018-04-22T01:14:58.637Z,1018.46
2018-04-22T01:15:58.735Z,1018.46
2018-04-22T01:16:58.818Z,1018.45
2018-04-22T01:17:58.699Z,1018.43
2018-04-22T01:18:58.693Z,1018.42
2018-04-22T01:19:58.737Z,1018.41
2018-04-22T01:20:58.792Z,1018.4
2018-04-22T01:21:58.761Z,1018.41
2018-04-22T01:22:58.716Z,1018.44
2018-04-22T01:23:58.663Z,1018.43
2018-04-22T01:24:58.496Z,1018.44
2018-04-22T01:25:58.803Z,1018.38
2018-04-22T01:26:58.755Z,1018.39
2018-04-22T01:27:58.569Z,1018.43
2018-04-22T01:28:58.652Z,1018.4
2018-04-22T01:29:58.902Z,1018.39
2018-04-22T01:30:58.511Z,1018.41
2018-04-22T01:31:58.650Z,1018.39
2018-04-22T01:32:58.998Z,1018.41
2018-04-22T01:33:58.786Z,1018.41
2018-04-22T01:34:58.810Z,1018.41
2018-04-22T01:35:58.593Z,1018.41
2018-04-22T01:36:58.785Z,1018.38
2018-04-22T01:37:58.630Z,1018.4
2018-04-22T01:38:58.696Z,1018.37
2018-04-22T01:39:58.603Z,1018.39
2018-04-22T01:40:58.698Z,1018.38
2018-04-22T01:41:58.866Z,1018.39
2018-04-22T01:42:58.869Z,1018.37
2018-04-22T01:43:58.728Z,1018.35
2018-04-22T01:44:58.627Z,1018.34
2018-04-22T01:45:58.773Z,1018.34
2018-04-22T01:46:58.757Z,1018.37
2018-04-22T01:47:58.615Z,1018.33
2018-04-22T01:48:58.593Z,1018.34
2018-04-22T01:49:58.481Z,1018.39
2018-04-22T01:50:58.702Z,1018.37
2018-04-22T01:51:58.735Z,1018.39
2018-04-22T01:52:58.690Z,1018.38
2018-04-22T01:53:58.560Z,1018.37
2018-04-22T01:54:58.594Z,1018.35
2018-04-22T01:55:58.921Z,1018.39
2018-04-22T01:56:58.741Z,1018.37
2018-04-22T01:57:58.526Z,1018.34
2018-04-22T01:58:58.596Z,1018.36
2018-04-22T01:59:58.723Z,1018.37
2018-04-22T02:00:58.791Z,1018.37
2018-04-22T02:01:58.714Z,1018.35
2018-04-22T02:02:58.720Z,1018.37
2018-04-22T02:03:58.675Z,1018.37
2018-04-22T02:04:58.698Z,1018.36
2018-04-22T02:05:58.488Z,1018.4
2018-04-22T02:06:58.707Z,1018.37
2018-04-22T02:07:58.694Z,1018.35
2018-04-22T02:08:58.480Z,1018.32
2018-04-22T02:09:58.706Z,1018.31
2018-04-22T02:10:58.562Z,1018.29
2018-04-22T02:11:58.848Z,1018.28
2018-04-22T02:12:58.518Z,1018.28
2018-04-22T02:13:58.606Z,1018.24
2018-04-22T02:14:58.520Z,1018.24
2018-04-22T02:15:58.654Z,1018.19
2018-04-22T02:16:58.813Z,1018.19
2018-04-22T02:17:59.001Z,1018.16
2018-04-22T02:18:58.657Z,1018.17
2018-04-22T02:19:58.506Z,1018.14
2018-04-22T02:20:58.664Z,1018.13
2018-04-22T02:21:58.838Z,1018.1
2018-04-22T02:22:58.764Z,1018.13
2018-04-22T02:23:58.609Z,1018.12
2018-04-22T02:24:58.672Z,1018.11
2018-04-22T02:25:58.641Z,1018.1
2018-04-22T02:26:58.552Z,1018.08
2018-04-22T02:27:58.529Z,1018.05
2018-04-22T02:28:58.711Z,1018.04
2018-04-22T02:29:58.690Z,1018.06
2018-04-22T02:30:58.761Z,1018.05
2018-04-22T02:31:58.684Z,1018.04
2018-04-22T02:32:58.544Z,1017.99
2018-04-22T02:33:58.714Z,1018
2018-04-22T02:34:58.694Z,1018.01
2018-04-22T02:35:58.738Z,1018.01
2018-04-22T02:36:58.521Z,1018
2018-04-22T02:37:58.712Z,1018
2018-04-22T02:38:58.746Z,1018.03
2018-04-22T02:39:58.762Z,1018
2018-04-22T02:40:58.540Z,1018.05
2018-04-22T02:41:58.672Z,1018.01
2018-04-22T02:42:58.811Z,1018.04
2018-04-22T02:43:58.536Z,1018.05
2018-04-22T02:44:58.597Z,1018.05
2018-04-22T02:45:58.685Z,1018.08
2018-04-22T02:46:58.368Z,1018.08
2018-04-22T02:47:58.531Z,1018.11
2018-04-22T02:48:58.624Z,1018.1
2018-04-22T02:49:58.779Z,1018.1
2018-04-22T02:50:58.625Z,1018.1
2018-04-22T02:51:58.596Z,1018.12
2018-04-22T02:52:58.516Z,1018.09
2018-04-22T02:53:58.536Z,1018.11
2018-04-22T02:54:58.726Z,1018.14
2018-04-22T02:55:58.706Z,1018.1
2018-04-22T02:56:58.576Z,1018.13
2018-04-22T02:57:58.707Z,1018.11
2018-04-22T02:58:58.685Z,1018.13
2018-04-22T02:59:58.587Z,1018.1
2018-04-22T03:00:58.704Z,1018.1
2018-04-22T03:01:58.546Z,1018.09
2018-04-22T03:02:58.716Z,1018.1
2018-04-22T03:03:58.463Z,1018.06
2018-04-22T03:04:58.572Z,1018.09
2018-04-22T03:05:58.455Z,1018.06
2018-04-22T03:06:58.609Z,1018.04
2018-04-22T03:07:59.031Z,1018.04
2018-04-22T03:08:58.613Z,1018.05
2018-04-22T03:09:58.675Z,1018.06
2018-04-22T03:10:58.507Z,1018.05
2018-04-22T03:11:58.607Z,1018.05
2018-04-22T03:12:58.679Z,1018.03
2018-04-22T03:13:58.535Z,1018.05
2018-04-22T03:14:58.456Z,1018.02
2018-04-22T03:15:58.641Z,1018
2018-04-22T03:16:58.658Z,1017.97
2018-04-22T03:17:58.714Z,1017.99
2018-04-22T03:18:58.469Z,1017.97
2018-04-22T03:19:58.474Z,1017.96
2018-04-22T03:20:58.532Z,1017.93
2018-04-22T03:21:58.523Z,1017.96
2018-04-22T03:22:58.557Z,1017.95
2018-04-22T03:23:58.686Z,1017.98
2018-04-22T03:24:58.497Z,1017.96
2018-04-22T03:25:58.640Z,1017.93
2018-04-22T03:26:58.727Z,1017.95
2018-04-22T03:27:58.692Z,1017.95
2018-04-22T03:28:58.646Z,1017.91
2018-04-22T03:29:58.472Z,1017.9
2018-04-22T03:30:58.456Z,1017.88
2018-04-22T03:31:58.668Z,1017.87
2018-04-22T03:32:58.689Z,1017.84
2018-04-22T03:33:58.583Z,1017.8
2018-04-22T03:34:58.649Z,1017.79
2018-04-22T03:35:58.716Z,1017.83
2018-04-22T03:36:58.480Z,1017.77
2018-04-22T03:37:58.734Z,1017.71
2018-04-22T03:38:58.665Z,1017.82
2018-04-22T03:39:58.547Z,1017.76
2018-04-22T03:40:58.621Z,1017.76
2018-04-22T03:41:58.740Z,1017.71
2018-04-22T03:42:58.639Z,1017.76
2018-04-22T03:43:58.475Z,1017.73
2018-04-22T03:44:58.610Z,1017.72
2018-04-22T03:45:58.657Z,1017.73
2018-04-22T03:46:58.732Z,1017.76
2018-04-22T03:47:58.683Z,1017.75
2018-04-22T03:48:58.482Z,1017.73
2018-04-22T03:49:58.436Z,1017.73
2018-04-22T03:50:58.705Z,1017.74
2018-04-22T03:51:58.684Z,1017.75
2018-04-22T03:52:58.707Z,1017.74
2018-04-22T03:53:58.616Z,1017.73
2018-04-22T03:54:58.675Z,1017.72
2018-04-22T03:55:58.555Z,1017.72
2018-04-22T03:56:58.599Z,1017.68
2018-04-22T03:57:58.636Z,1017.67
2018-04-22T03:58:58.542Z,1017.69
2018-04-22T03:59:58.476Z,1017.67
2018-04-22T04:00:58.506Z,1017.66
2018-04-22T04:01:58.596Z,1017.65
2018-04-22T04:02:58.504Z,1017.62
2018-04-22T04:03:58.542Z,1017.65
2018-04-22T04:04:58.564Z,1017.66
2018-04-22T04:05:58.647Z,1017.65
2018-04-22T04:06:58.447Z,1017.6
2018-04-22T04:07:58.693Z,1017.6
2018-04-22T04:08:58.627Z,1017.63
2018-04-22T04:09:58.804Z,1017.59
2018-04-22T04:10:58.548Z,1017.58
2018-04-22T04:11:58.519Z,1017.59
2018-04-22T04:12:58.613Z,1017.63
2018-04-22T04:13:58.475Z,1017.65
2018-04-22T04:14:58.279Z,1017.66
2018-04-22T04:15:58.754Z,1017.62
2018-04-22T04:16:58.645Z,1017.65
2018-04-22T04:17:58.639Z,1017.63
2018-04-22T04:18:58.554Z,1017.67
2018-04-22T04:19:58.449Z,1017.61
2018-04-22T04:20:58.575Z,1017.61
2018-04-22T04:21:58.661Z,1017.6
2018-04-22T04:22:58.604Z,1017.55
2018-04-22T04:23:58.767Z,1017.58
2018-04-22T04:24:58.546Z,1017.58
2018-04-22T04:25:58.542Z,1017.57
2018-04-22T04:26:58.582Z,1017.63
2018-04-22T04:27:58.422Z,1017.61
2018-04-22T04:28:58.567Z,1017.61
2018-04-22T04:29:58.605Z,1017.62
2018-04-22T04:30:58.741Z,1017.63
2018-04-22T04:31:58.636Z,1017.67
2018-04-22T04:32:58.617Z,1017.65
2018-04-22T04:33:58.518Z,1017.62
2018-04-22T04:34:58.535Z,1017.65
2018-04-22T04:35:58.839Z,1017.67
2018-04-22T04:36:58.516Z,1017.64
2018-04-22T04:37:58.670Z,1017.63
2018-04-22T04:38:58.437Z,1017.6
2018-04-22T04:39:58.714Z,1017.61
2018-04-22T04:40:58.688Z,1017.65
2018-04-22T04:41:58.703Z,1017.63
2018-04-22T04:42:58.599Z,1017.59
2018-04-22T04:43:58.545Z,1017.62
2018-04-22T04:44:58.460Z,1017.6
2018-04-22T04:45:58.482Z,1017.59
2018-04-22T04:46:58.482Z,1017.6
2018-04-22T04:47:58.713Z,1017.6
2018-04-22T04:48:58.707Z,1017.62
2018-04-22T04:49:58.685Z,1017.6
2018-04-22T04:50:58.518Z,1017.6
2018-04-22T04:51:58.628Z,1017.68
2018-04-22T04:52:58.746Z,1017.64
2018-04-22T04:53:58.772Z,1017.64
2018-04-22T04:54:58.794Z,1017.67
2018-04-22T04:55:58.472Z,1017.63
2018-04-22T04:56:58.573Z,1017.66
2018-04-22T04:57:58.588Z,1017.65
2018-04-22T04:58:58.574Z,1017.64
2018-04-22T04:59:58.627Z,1017.65
2018-04-22T05:00:58.632Z,1017.65
2018-04-22T05:01:58.522Z,1017.65
2018-04-22T05:02:58.548Z,1017.66
2018-04-22T05:03:58.510Z,1017.64
2018-04-22T05:04:58.769Z,1017.66
2018-04-22T05:05:58.460Z,1017.66
2018-04-22T05:06:58.632Z,1017.62
2018-04-22T05:07:58.557Z,1017.63
2018-04-22T05:08:58.750Z,1017.64
2018-04-22T05:09:58.454Z,1017.63
2018-04-22T05:10:58.643Z,1017.65
2018-04-22T05:11:58.646Z,1017.62
2018-04-22T05:12:58.614Z,1017.65
2018-04-22T05:13:58.477Z,1017.67
2018-04-22T05:14:58.612Z,1017.66
2018-04-22T05:15:58.771Z,1017.67
2018-04-22T05:16:58.659Z,1017.66
2018-04-22T05:17:58.441Z,1017.67
2018-04-22T05:18:58.607Z,1017.68
2018-04-22T05:19:58.628Z,1017.71
2018-04-22T05:20:58.622Z,1017.71
2018-04-22T05:21:58.501Z,1017.71
2018-04-22T05:22:58.447Z,1017.71
2018-04-22T05:23:58.544Z,1017.74
2018-04-22T05:24:58.608Z,1017.77
2018-04-22T05:25:58.495Z,1017.73
2018-04-22T05:26:58.530Z,1017.75
2018-04-22T05:27:58.454Z,1017.72
2018-04-22T05:28:58.600Z,1017.74
2018-04-22T05:29:58.483Z,1017.73
2018-04-22T05:30:58.604Z,1017.72
2018-04-22T05:31:58.541Z,1017.77
2018-04-22T05:32:58.573Z,1017.75
2018-04-22T05:33:58.432Z,1017.78
2018-04-22T05:34:58.468Z,1017.75
2018-04-22T05:35:58.442Z,1017.78
2018-04-22T05:36:58.543Z,1017.75
2018-04-22T05:37:58.519Z,1017.75
2018-04-22T05:38:58.637Z,1017.76
2018-04-22T05:39:58.499Z,1017.73
2018-04-22T05:40:58.576Z,1017.76
2018-04-22T05:41:58.534Z,1017.73
2018-04-22T05:42:58.423Z,1017.76
2018-04-22T05:43:58.666Z,1017.74
2018-04-22T05:44:58.553Z,1017.74
2018-04-22T05:45:58.684Z,1017.78
2018-04-22T05:46:58.489Z,1017.78
2018-04-22T05:47:58.537Z,1017.81
2018-04-22T05:48:58.516Z,1017.81
2018-04-22T05:49:58.450Z,1017.81
2018-04-22T05:50:58.603Z,1017.85
2018-04-22T05:51:58.692Z,1017.85
2018-04-22T05:52:58.469Z,1017.83
2018-04-22T05:53:58.617Z,1017.84
2018-04-22T05:54:58.733Z,1017.84
2018-04-22T05:55:58.617Z,1017.83
2018-04-22T05:56:58.525Z,1017.9
2018-04-22T05:57:58.519Z,1017.86
2018-04-22T05:58:58.507Z,1017.9
2018-04-22T05:59:58.564Z,1017.95
2018-04-22T06:00:58.567Z,1017.97
2018-04-22T06:01:58.276Z,1017.98
2018-04-22T06:02:58.568Z,1017.96
2018-04-22T06:03:58.639Z,1017.98
2018-04-22T06:04:58.625Z,1018
2018-04-22T06:05:58.455Z,1018.01
2018-04-22T06:06:58.527Z,1018.01
2018-04-22T06:07:58.766Z,1018.06
2018-04-22T06:08:58.479Z,1018.07
2018-04-22T06:09:58.635Z,1018.05
2018-04-22T06:10:58.551Z,1018.1
2018-04-22T06:11:58.494Z,1018.08
2018-04-22T06:12:58.468Z,1018.1
2018-04-22T06:13:58.592Z,1018.15
2018-04-22T06:14:58.737Z,1018.17
2018-04-22T06:15:58.705Z,1018.15
2018-04-22T06:16:58.610Z,1018.19
2018-04-22T06:17:58.700Z,1018.19
2018-04-22T06:18:58.683Z,1018.22
2018-04-22T06:19:58.449Z,1018.16
2018-04-22T06:20:58.750Z,1018.22
2018-04-22T06:21:58.731Z,1018.2
2018-04-22T06:22:58.651Z,1018.17
2018-04-22T06:23:58.642Z,1018.25
2018-04-22T06:24:58.432Z,1018.15
2018-04-22T06:25:58.549Z,1018.19
2018-04-22T06:26:58.321Z,1018.16
2018-04-22T06:27:58.491Z,1018.18
2018-04-22T06:28:58.515Z,1018.15
2018-04-22T06:29:58.536Z,1018.17
2018-04-22T06:30:58.389Z,1018.17
2018-04-22T06:31:58.679Z,1018.19
2018-04-22T06:32:58.637Z,1018.17
2018-04-22T06:33:58.578Z,1018.22
2018-04-22T06:34:58.526Z,1018.25
2018-04-22T06:35:58.440Z,1018.19
2018-04-22T06:36:58.401Z,1018.21
2018-04-22T06:37:58.597Z,1018.19
2018-04-22T06:38:58.552Z,1018.2
2018-04-22T06:39:58.398Z,1018.21
2018-04-22T06:40:58.526Z,1018.2
2018-04-22T06:41:58.596Z,1018.19
2018-04-22T06:42:58.524Z,1018.21
2018-04-22T06:43:58.367Z,1018.2
2018-04-22T06:44:58.590Z,1018.19
2018-04-22T06:45:58.604Z,1018.15
2018-04-22T06:46:58.679Z,1018.13
2018-04-22T06:47:58.562Z,1018.09
2018-04-22T06:48:58.662Z,1018.14
2018-04-22T06:49:58.395Z,1018.1
2018-04-22T06:50:58.558Z,1018.15
2018-04-22T06:51:58.403Z,1018.1
2018-04-22T06:52:58.536Z,1018.12
2018-04-22T06:53:58.465Z,1018.15
2018-04-22T06:54:58.536Z,1018.16
2018-04-22T06:55:58.629Z,1018.13
2018-04-22T06:56:58.596Z,1018.15
2018-04-22T06:57:58.681Z,1018.15
2018-04-22T06:58:58.573Z,1018.17
2018-04-22T06:59:58.462Z,1018.18
2018-04-22T07:00:58.552Z,1018.17
2018-04-22T07:01:58.548Z,1018.14
2018-04-22T07:02:58.488Z,1018.18
2018-04-22T07:03:58.606Z,1018.17
2018-04-22T07:04:58.713Z,1018.1
2018-04-22T07:05:58.549Z,1018.14
2018-04-22T07:06:58.667Z,1018.15
2018-04-22T07:07:58.395Z,1018.1
2018-04-22T07:08:58.544Z,1018.1
2018-04-22T07:09:58.652Z,1018.1
2018-04-22T07:10:58.387Z,1018.15
2018-04-22T07:11:58.522Z,1018.14
2018-04-22T07:12:58.466Z,1018.1
2018-04-22T07:13:58.527Z,1018.12
2018-04-22T07:14:58.628Z,1018.11
2018-04-22T07:15:58.435Z,1018.11
2018-04-22T07:16:58.401Z,1018.09
2018-04-22T07:17:58.558Z,1018.07
2018-04-22T07:18:58.626Z,1018.13
2018-04-22T07:19:58.404Z,1018.07
2018-04-22T07:20:58.549Z,1018.02
2018-04-22T07:21:58.485Z,1018.02
2018-04-22T07:22:58.533Z,1018.01
2018-04-22T07:23:58.887Z,1017.98
2018-04-22T07:24:58.468Z,1018.03
2018-04-22T07:25:58.471Z,1018
2018-04-22T07:26:58.462Z,1018
2018-04-22T07:27:58.474Z,1018.04
2018-04-22T07:28:58.477Z,1018.05
2018-04-22T07:29:58.561Z,1018.02
2018-04-22T07:30:58.380Z,1018.03
2018-04-22T07:31:58.562Z,1018.04
2018-04-22T07:32:58.585Z,1018.09
2018-04-22T07:33:58.600Z,1018.12
2018-04-22T07:34:58.486Z,1018.13
2018-04-22T07:35:58.523Z,1018.18
2018-04-22T07:36:58.423Z,1018.13
2018-04-22T07:37:58.651Z,1018.16
2018-04-22T07:38:58.551Z,1018.15
2018-04-22T07:39:58.439Z,1018.09
2018-04-22T07:40:58.491Z,1018.18
2018-04-22T07:41:58.361Z,1018.13
2018-04-22T07:42:58.451Z,1018.09
2018-04-22T07:43:58.555Z,1018.07
2018-04-22T07:44:58.603Z,1018.06
2018-04-22T07:45:58.415Z,1018.01
2018-04-22T07:46:58.456Z,1018.06
2018-04-22T07:47:58.645Z,1018.08
2018-04-22T07:48:58.488Z,1018.09
2018-04-22T07:49:58.664Z,1018.09
2018-04-22T07:50:58.441Z,1018.13
2018-04-22T07:51:58.511Z,1018.1
2018-04-22T07:52:58.599Z,1018.1
2018-04-22T07:53:58.495Z,1018.15
2018-04-22T07:54:58.572Z,1018.11
2018-04-22T07:55:58.391Z,1018.17
2018-04-22T07:56:58.382Z,1018.09
2018-04-22T07:57:58.505Z,1018.13
2018-04-22T07:58:58.612Z,1018.1
2018-04-22T07:59:58.426Z,1018.12
2018-04-22T08:00:58.555Z,1018.09
2018-04-22T08:01:58.636Z,1018.09
2018-04-22T08:02:58.417Z,1018.07
2018-04-22T08:03:58.408Z,1018.04
2018-04-22T08:04:58.518Z,1018.03
2018-04-22T08:05:58.522Z,1018.08
2018-04-22T08:06:58.342Z,1018.05
2018-04-22T08:07:58.583Z,1018.08
2018-04-22T08:08:58.557Z,1018.11
2018-04-22T08:09:58.618Z,1018.14
2018-04-22T08:10:58.450Z,1018.08
2018-04-22T08:11:58.511Z,1018.09
2018-04-22T08:12:58.522Z,1018.04
2018-04-22T08:13:58.681Z,1018.06
2018-04-22T08:14:58.565Z,1018.07
2018-04-22T08:15:58.558Z,1018.09
2018-04-22T08:16:58.655Z,1018.07
2018-04-22T08:17:58.714Z,1018.11
2018-04-22T08:18:58.553Z,1018.17
2018-04-22T08:19:58.646Z,1018.1
2018-04-22T08:20:58.670Z,1018.09
2018-04-22T08:21:58.495Z,1018.08
2018-04-22T08:22:58.463Z,1018.14
2018-04-22T08:23:58.585Z,1018.08
2018-04-22T08:24:58.589Z,1018.12
2018-04-22T08:25:58.441Z,1018.08
2018-04-22T08:26:58.550Z,1018.13
2018-04-22T08:27:58.523Z,1018.08
2018-04-22T08:28:58.378Z,1018.07
2018-04-22T08:29:58.516Z,1018.07
2018-04-22T08:30:58.456Z,1018.08
2018-04-22T08:31:58.333Z,1018.01
2018-04-22T08:32:58.613Z,1018.08
2018-04-22T08:33:58.577Z,1018.09
2018-04-22T08:34:58.542Z,1018.12
2018-04-22T08:35:58.492Z,1018.09
2018-04-22T08:36:58.482Z,1018.06
2018-04-22T08:37:58.440Z,1018.06
2018-04-22T08:38:58.485Z,1018.05
2018-04-22T08:39:58.587Z,1018.09
2018-04-22T08:40:58.399Z,1018.05
2018-04-22T08:41:58.512Z,1018.07
2018-04-22T08:42:58.418Z,1018.07
2018-04-22T08:43:58.693Z,1018.05
2018-04-22T08:44:58.623Z,1018.05
2018-04-22T08:45:58.587Z,1018.06
2018-04-22T08:46:58.520Z,1018.07
2018-04-22T08:47:58.481Z,1018.08
2018-04-22T08:48:58.874Z,1018.12
2018-04-22T08:49:58.423Z,1018.14
2018-04-22T08:50:58.552Z,1018.12
2018-04-22T08:51:58.632Z,1018.11
2018-04-22T08:52:58.433Z,1018.12
2018-04-22T08:53:58.656Z,1018.13
2018-04-22T08:54:58.383Z,1018.11
2018-04-22T08:55:58.521Z,1018.09
2018-04-22T08:56:58.340Z,1018.11
2018-04-22T08:57:58.406Z,1018.13
2018-04-22T08:58:58.897Z,1018.11
2018-04-22T08:59:58.550Z,1018.14
2018-04-22T09:00:58.503Z,1018.11
2018-04-22T09:01:58.619Z,1018.16
2018-04-22T09:02:58.836Z,1018.1
2018-04-22T09:03:58.480Z,1018.08
2018-04-22T09:04:58.847Z,1018.12
2018-04-22T09:05:58.651Z,1018.12
2018-04-22T09:06:58.644Z,1018.07
2018-04-22T09:07:58.578Z,1018.1
2018-04-22T09:08:58.489Z,1018.12
2018-04-22T09:09:58.704Z,1018.14
2018-04-22T09:10:58.471Z,1018.04
2018-04-22T09:11:58.975Z,1018.11
2018-04-22T09:12:58.976Z,1018.07
2018-04-22T09:13:58.366Z,1018.03
2018-04-22T09:14:58.383Z,1018.08
2018-04-22T09:15:58.689Z,1018.04
2018-04-22T09:16:58.449Z,1018.04
2018-04-22T09:17:58.571Z,1018.02
2018-04-22T09:18:58.416Z,1018.07
2018-04-22T09:19:58.707Z,1018.01
2018-04-22T09:20:58.551Z,1017.98
2018-04-22T09:21:58.475Z,1018.02
2018-04-22T09:22:58.485Z,1018.01
2018-04-22T09:23:58.561Z,1017.96
2018-04-22T09:24:58.445Z,1017.98
2018-04-22T09:25:58.434Z,1017.97
2018-04-22T09:26:58.497Z,1017.98
2018-04-22T09:27:58.670Z,1017.95
2018-04-22T09:28:58.602Z,1017.95
2018-04-22T09:29:58.452Z,1017.93
2018-04-22T09:30:58.413Z,1017.94
2018-04-22T09:31:58.515Z,1017.96
2018-04-22T09:32:58.371Z,1017.93
2018-04-22T09:33:58.497Z,1017.93
2018-04-22T09:34:58.459Z,1017.94
2018-04-22T09:35:58.450Z,1017.91
2018-04-22T09:36:58.405Z,1017.96
2018-04-22T09:37:58.856Z,1017.91
2018-04-22T09:38:58.376Z,1017.92
2018-04-22T09:39:58.358Z,1017.87
2018-04-22T09:40:58.546Z,1017.83
2018-04-22T09:41:58.770Z,1017.85
2018-04-22T09:42:58.424Z,1017.81
2018-04-22T09:43:58.646Z,1017.82
2018-04-22T09:44:58.518Z,1017.81
2018-04-22T09:45:58.792Z,1017.8
2018-04-22T09:46:58.355Z,1017.75
2018-04-22T09:47:58.352Z,1017.77
2018-04-22T09:48:58.526Z,1017.75
2018-04-22T09:49:58.513Z,1017.79
2018-04-22T09:50:58.497Z,1017.76
2018-04-22T09:51:58.460Z,1017.78
2018-04-22T09:52:58.444Z,1017.79
2018-04-22T09:53:58.579Z,1017.77
2018-04-22T09:54:58.479Z,1017.73
2018-04-22T09:55:58.591Z,1017.69
2018-04-22T09:56:58.604Z,1017.68
2018-04-22T09:57:58.587Z,1017.72
2018-04-22T09:58:58.603Z,1017.71
2018-04-22T09:59:58.389Z,1017.65
2018-04-22T10:00:58.384Z,1017.63
2018-04-22T10:01:58.369Z,1017.67
2018-04-22T10:02:58.603Z,1017.67
2018-04-22T10:03:58.559Z,1017.66
2018-04-22T10:04:58.724Z,1017.63
2018-04-22T10:05:58.544Z,1017.58
2018-04-22T10:06:58.537Z,1017.62
2018-04-22T10:07:58.595Z,1017.51
2018-04-22T10:08:58.475Z,1017.54
2018-04-22T10:09:58.507Z,1017.56
2018-04-22T10:10:58.791Z,1017.52
2018-04-22T10:11:58.396Z,1017.54
2018-04-22T10:12:58.576Z,1017.51
2018-04-22T10:13:58.481Z,1017.55
2018-04-22T10:14:58.377Z,1017.52
2018-04-22T10:15:58.581Z,1017.51
2018-04-22T10:16:58.679Z,1017.51
2018-04-22T10:17:58.485Z,1017.48
2018-04-22T10:18:58.757Z,1017.48
2018-04-22T10:19:58.668Z,1017.48
2018-04-22T10:20:58.456Z,1017.47
2018-04-22T10:21:58.712Z,1017.4
2018-04-22T10:22:58.549Z,1017.43
2018-04-22T10:23:58.698Z,1017.4
2018-04-22T10:24:58.689Z,1017.42
2018-04-22T10:25:58.372Z,1017.4
2018-04-22T10:26:58.470Z,1017.37
2018-04-22T10:27:58.466Z,1017.35
2018-04-22T10:28:58.390Z,1017.38
2018-04-22T10:29:58.358Z,1017.34
2018-04-22T10:30:58.347Z,1017.32
2018-04-22T10:31:58.408Z,1017.3
2018-04-22T10:32:58.411Z,1017.26
2018-04-22T10:33:58.542Z,1017.27
2018-04-22T10:34:58.589Z,1017.28
2018-04-22T10:35:58.779Z,1017.26
2018-04-22T10:36:58.365Z,1017.23
2018-04-22T10:37:58.512Z,1017.22
2018-04-22T10:38:58.583Z,1017.2
2018-04-22T10:39:58.858Z,1017.18
2018-04-22T10:40:58.527Z,1017.13
2018-04-22T10:41:58.648Z,1017.12
2018-04-22T10:42:58.493Z,1017.07
2018-04-22T10:43:58.415Z,1017.06
2018-04-22T10:44:58.447Z,1017.03
2018-04-22T10:45:58.372Z,1017.04
2018-04-22T10:46:58.503Z,1017.06
2018-04-22T10:47:58.567Z,1017.03
2018-04-22T10:48:58.415Z,1017.01
2018-04-22T10:49:58.437Z,1017.05
2018-04-22T10:50:58.422Z,1017.03
2018-04-22T10:51:58.596Z,1017
2018-04-22T10:52:58.504Z,1017.05
2018-04-22T10:53:58.582Z,1017
2018-04-22T10:54:58.430Z,1016.98
2018-04-22T10:55:58.444Z,1016.95
2018-04-22T10:56:58.499Z,1016.97
2018-04-22T10:57:58.648Z,1016.96
2018-04-22T10:58:58.455Z,1016.93
2018-04-22T10:59:58.530Z,1016.92
2018-04-22T11:00:58.434Z,1016.95
2018-04-22T11:01:58.649Z,1016.93
2018-04-22T11:02:58.371Z,1016.97
2018-04-22T11:03:58.422Z,1016.93
2018-04-22T11:04:58.418Z,1016.91
2018-04-22T11:05:58.377Z,1016.89
2018-04-22T11:06:58.457Z,1016.91
2018-04-22T11:07:58.426Z,1016.85
2018-04-22T11:08:58.405Z,1016.87
2018-04-22T11:09:58.886Z,1016.87
2018-04-22T11:10:58.342Z,1016.89
2018-04-22T11:11:58.548Z,1016.86
2018-04-22T11:12:59.137Z,1016.82
2018-04-22T11:13:58.378Z,1016.78
2018-04-22T11:14:58.524Z,1016.78
2018-04-22T11:15:58.596Z,1016.8
2018-04-22T11:16:58.568Z,1016.78
2018-04-22T11:17:58.581Z,1016.74
2018-04-22T11:18:58.389Z,1016.71
2018-04-22T11:19:58.513Z,1016.71
2018-04-22T11:20:58.476Z,1016.73
2018-04-22T11:21:58.648Z,1016.72
2018-04-22T11:22:58.539Z,1016.71
2018-04-22T11:23:58.549Z,1016.69
2018-04-22T11:24:58.555Z,1016.73
2018-04-22T11:25:58.372Z,1016.71
2018-04-22T11:26:58.442Z,1016.65
2018-04-22T11:27:58.403Z,1016.67
2018-04-22T11:28:58.467Z,1016.68
2018-04-22T11:29:58.432Z,1016.67
2018-04-22T11:30:58.621Z,1016.64
2018-04-22T11:31:58.693Z,1016.62
2018-04-22T11:32:58.543Z,1016.6
2018-04-22T11:33:58.575Z,1016.59
2018-04-22T11:34:58.398Z,1016.58
2018-04-22T11:35:58.477Z,1016.59
2018-04-22T11:36:58.488Z,1016.59
2018-04-22T11:37:58.539Z,1016.55
2018-04-22T11:38:58.674Z,1016.57
2018-04-22T11:39:58.513Z,1016.56
2018-04-22T11:40:58.695Z,1016.56
2018-04-22T11:41:58.706Z,1016.54
2018-04-22T11:42:58.458Z,1016.5
2018-04-22T11:43:58.518Z,1016.55
2018-04-22T11:44:58.346Z,1016.55
2018-04-22T11:45:58.617Z,1016.51
2018-04-22T11:46:58.408Z,1016.53
2018-04-22T11:47:58.546Z,1016.54
2018-04-22T11:48:58.580Z,1016.52
2018-04-22T11:49:58.561Z,1016.53
2018-04-22T11:50:58.300Z,1016.49
2018-04-22T11:51:58.426Z,1016.51
2018-04-22T11:52:58.554Z,1016.46
2018-04-22T11:53:58.611Z,1016.49
2018-04-22T11:54:58.537Z,1016.46
2018-04-22T11:55:58.582Z,1016.49
2018-04-22T11:56:58.500Z,1016.48
2018-04-22T11:57:58.472Z,1016.48
2018-04-22T11:58:58.474Z,1016.46
2018-04-22T11:59:58.809Z,1016.42
2018-04-22T12:00:58.387Z,1016.44
2018-04-22T12:01:58.401Z,1016.44
2018-04-22T12:02:58.381Z,1016.44
2018-04-22T12:03:58.475Z,1016.43
2018-04-22T12:04:58.485Z,1016.47
2018-04-22T12:05:58.482Z,1016.43
2018-04-22T12:06:58.442Z,1016.4
2018-04-22T12:07:58.489Z,1016.38
2018-04-22T12:08:58.584Z,1016.39